Babbitt, MN (55706)

8:32 AM CDT on July 31, 2014 (GMT -0500)
Ely Municipal (KELO) Elev 1453 ft | 47.82 °N, 91.83 °W | Change Station

Current weather conditions updated 19 minutes ago

Fog
Fog
57 °F
Feels Like 57 °F
N
0
Wind Variable Wind from North

Today is forecast to be Warmer than yesterday.

Today
High -- | Low -- °F
--% Chance of Precip.
Yesterday
High -- | Low -- °F
Precip. -- in
5:43 AM 8:43 PM
Waxing Crescent, 18% visible
Pressure 30.00 in
Visibility 0.2 miles
Clouds Overcast 100 ft
Dew Point 55 °F
Humidity 94%
Rainfall 0.00 in
Snow Depth Not available.
UV 1 out of 12
Pollen 6.00 out of 12
Air Quality Not available.
Flu Activity Not available.
METAR KELO 311313Z AUTO 00000KT 1/4SM FG OVC001 14/13 A3000 RMK AO2

More Conditions Fewer Conditions

Pressure 30.00 in
Visibility 0.2 miles
Clouds Overcast 100 ft
Dew Point 55 °F
Humidity 94%
Rainfall 0.00 in
Snow Depth Not available.
UV 1 out of 12
Pollen 6.00 out of 12
Air Quality Not available.
Flu Activity Not available.
METAR KELO 311313Z AUTO 00000KT 1/4SM FG OVC001 14/13 A3000 RMK AO2

More Conditions Fewer Conditions

10-Day Weather Forecast

Almanac

Astronomy

Jul. 31, 2014 Rise Set
Actual Time 5:43 AM CDT 8:43 PM CDT
Civil Twilight 5:07 AM CDT 9:20 PM CDT
Nautical Twilight 4:20 AM CDT 10:06 PM CDT
Astronomical Twilight 3:23 AM CDT 11:03 PM CDT
Moon 10:34 AM CDT 10:31 PM CDT
Length of Visible Light 16h 12m
Length of Day
15h 00m
Tomorrow will be 2m 41s shorter.
Waxing Crescent, 18% of the Moon is Illuminated
Today
Waxing Crescent
Aug 3
First Quarter
Aug 10
Full
Aug 17
Last Quarter
Aug 25
New

Today's Extremes

State Highs State Lows

Community

WunderPhotos

Upload Photos

1,739,324 photos uploaded!

WunderBlogs® & News

Nearby

Snow Depth

Station Depth Elevation
No new snow has been reported.

Earthquake Activity

City Distance Mag. Time & Date
No recent earthquake activity has been reported nearby.
Minimum magnitude displayed is 2.5.

Coastal Water Temperatures

Place Temperature
No Stations Reporting

Nearby Weather Stations

Station Location Temp. Dew Point Humidity Wind Precip. Elev Updated Type
RAWS ELY MN, Ely, MN 50 °F 49 °F 97% North  at  0 mph 0.00 in / hr 1455 ft 7:04 AM CDT MADIS
Near Bearhead Lake State Park - Tower, S, Ely, MN 61.0 °F 58 °F 91% WNW  at  0.0 mph 0.00 in / hr 1575 ft 8:32 AM CDT Rapid Fire
HADS SOUTH FORK KAWISHIWI RIVER NEAR MN, Winton, MN 54 °F - - North  at  - 0.00 in / hr 1419 ft 7:30 AM CDT MADIS

Show More Stations Show Fewer Stations